Martin, Ohio
Current Conditions -  °F | °C
As of 8:53 AM on Friday 31 Oct 2014 (Local Time) from KTDZ Reporting Station
Light Rain Light Rain  
Wind Chill: 40°   Ceiling: 4800
Heat Index: 44°   Visibility: 10mi
Dew Point: 36°   Wind: 8mph
Humidity: 73%   Direction: 230°SW
Pressure: 29.92"   Gusts: NA
Location:  41.56°N, 83.34°W
Report Text: KTDZ 311253Z AUTO 23007KT 10SM -RA OVC048 07/02 A2992 RMK AO2 RAB38 SLP132 P0000 T00670022 TSNO
Loading
Personal Weather Stations






























Interactive Weather Map
Tropical Storm Tracking
New forecast layout! Learn more

10-Day Weather Forecast

Advertisements
Track Severe Weather on mobile